createdAt,value
2022-11-22T00:00:43.189Z,3.30
2022-11-22T00:03:10.439Z,3.37
2022-11-22T00:05:38.123Z,3.67
2022-11-22T00:08:05.652Z,3.03
2022-11-22T00:10:32.924Z,3.43
2022-11-22T00:13:00.241Z,2.97
2022-11-22T00:15:27.233Z,3.57
2022-11-22T00:17:54.153Z,3.10
2022-11-22T00:20:22.301Z,4.20
2022-11-22T00:22:49.271Z,3.20
2022-11-22T00:25:16.405Z,3.20
2022-11-22T00:27:43.799Z,3.60
2022-11-22T00:30:11.227Z,3.07
2022-11-22T00:32:38.170Z,3.50
2022-11-22T00:35:05.832Z,3.23
2022-11-22T00:37:33.231Z,3.10
2022-11-22T00:40:00.232Z,3.00
2022-11-22T00:42:27.183Z,3.23
2022-11-22T00:44:54.092Z,3.17
2022-11-22T00:47:21.051Z,3.00
2022-11-22T00:49:48.065Z,3.47
2022-11-22T00:52:15.139Z,3.20
2022-11-22T00:54:42.296Z,2.90
2022-11-22T00:57:09.224Z,2.83
2022-11-22T00:59:36.127Z,2.97
2022-11-22T01:02:03.060Z,2.83
2022-11-22T01:04:30.011Z,4.07
2022-11-22T01:06:56.955Z,3.10
2022-11-22T01:09:24.897Z,3.17
2022-11-22T01:11:52.373Z,3.50
2022-11-22T01:14:19.664Z,3.27
2022-11-22T01:16:47.733Z,3.63
2022-11-22T01:19:15.385Z,2.93
2022-11-22T01:21:42.506Z,3.37
2022-11-22T01:24:10.104Z,2.90
2022-11-22T01:26:37.256Z,3.50
2022-11-22T01:29:04.778Z,3.17
2022-11-22T01:31:31.837Z,3.10
2022-11-22T01:33:59.508Z,2.73
2022-11-22T01:36:27.583Z,2.80
2022-11-22T01:38:55.274Z,2.80
2022-11-22T01:41:22.867Z,2.93
2022-11-22T01:43:49.897Z,2.97
2022-11-22T01:46:30.536Z,2.93
2022-11-22T01:49:29.351Z,2.87
2022-11-22T01:52:06.340Z,2.93
2022-11-22T01:54:38.822Z,3.00
2022-11-22T01:57:13.925Z,2.50
2022-11-22T01:59:49.215Z,2.87
2022-11-22T02:02:16.292Z,3.40
2022-11-22T02:04:45.596Z,3.40
2022-11-22T02:07:25.140Z,3.03
2022-11-22T02:09:53.355Z,2.77
2022-11-22T02:12:27.953Z,2.67
2022-11-22T02:14:56.090Z,2.70
2022-11-22T02:17:26.757Z,3.20
2022-11-22T02:19:54.648Z,2.37
2022-11-22T02:22:52.343Z,2.73
2022-11-22T02:25:27.211Z,2.60
2022-11-22T02:27:54.174Z,2.30
2022-11-22T02:30:21.847Z,1.93
2022-11-22T02:32:48.809Z,2.23
2022-11-22T02:35:22.844Z,2.53
2022-11-22T02:37:56.697Z,2.00
2022-11-22T02:40:24.593Z,2.00
2022-11-22T02:43:36.020Z,2.00
2022-11-22T02:46:09.515Z,2.00
2022-11-22T02:48:42.555Z,2.00
2022-11-22T02:51:09.837Z,1.90
2022-11-22T02:53:36.963Z,1.70
2022-11-22T02:56:04.090Z,2.10
2022-11-22T02:58:31.022Z,2.00
2022-11-22T03:00:58.006Z,2.10
2022-11-22T03:03:24.991Z,2.10
2022-11-22T03:05:51.926Z,2.20
2022-11-22T03:08:18.863Z,1.90
2022-11-22T03:10:45.802Z,1.90
2022-11-22T03:13:12.718Z,1.97
2022-11-22T03:15:39.681Z,1.90
2022-11-22T03:18:06.638Z,1.97
2022-11-22T03:20:34.127Z,2.83
2022-11-22T03:23:01.543Z,2.83
2022-11-22T03:25:28.974Z,2.67
2022-11-22T03:27:56.222Z,2.03
2022-11-22T03:30:23.136Z,2.50
2022-11-22T03:32:50.048Z,2.50
2022-11-22T03:35:17.043Z,2.40
2022-11-22T03:37:43.940Z,3.03
2022-11-22T03:40:11.236Z,3.13
2022-11-22T03:42:38.181Z,2.60
2022-11-22T03:45:06.368Z,2.83
2022-11-22T03:47:33.281Z,2.47
2022-11-22T03:50:00.238Z,2.20
2022-11-22T03:52:27.232Z,2.60
2022-11-22T03:54:54.132Z,2.67
2022-11-22T03:57:21.049Z,2.07
2022-11-22T03:59:48.027Z,2.53
2022-11-22T04:02:15.085Z,2.53
2022-11-22T04:04:42.063Z,2.20
2022-11-22T04:07:09.002Z,2.40
2022-11-22T04:09:35.959Z,2.90
2022-11-22T04:12:03.105Z,2.60
2022-11-22T04:14:48.443Z,3.00
2022-11-22T04:17:35.544Z,2.37
2022-11-22T04:20:21.038Z,2.13
2022-11-22T04:23:13.573Z,2.50
2022-11-22T04:25:43.528Z,2.30
2022-11-22T04:28:12.199Z,2.37
2022-11-22T04:30:57.898Z,2.30
2022-11-22T04:33:25.631Z,2.13
2022-11-22T04:35:53.061Z,2.10
2022-11-22T04:38:20.877Z,2.20
2022-11-22T04:40:48.119Z,2.27
2022-11-22T04:43:42.988Z,2.33
2022-11-22T04:46:10.577Z,2.30
2022-11-22T04:48:37.775Z,2.47
2022-11-22T04:51:25.235Z,2.10
2022-11-22T04:53:52.631Z,2.17
2022-11-22T04:56:19.845Z,2.07
2022-11-22T04:58:46.796Z,2.00
2022-11-22T05:01:13.782Z,2.30
2022-11-22T05:03:40.766Z,2.03
2022-11-22T05:06:07.706Z,2.27
2022-11-22T05:08:34.661Z,2.03
2022-11-22T05:11:01.631Z,1.73
2022-11-22T05:13:38.872Z,2.50
2022-11-22T05:16:09.071Z,1.90
2022-11-22T05:18:36.482Z,2.30
2022-11-22T05:21:08.916Z,1.97
2022-11-22T05:23:54.599Z,1.60
2022-11-22T05:26:33.911Z,2.13
2022-11-22T05:29:10.002Z,1.90
2022-11-22T05:31:39.785Z,1.80
2022-11-22T05:34:07.294Z,2.20
2022-11-22T05:36:35.373Z,2.00
2022-11-22T05:39:03.005Z,2.23
2022-11-22T05:41:30.071Z,2.00
2022-11-22T05:43:57.478Z,2.23
2022-11-22T05:46:30.181Z,2.10
2022-11-22T05:48:58.506Z,2.73
2022-11-22T05:51:34.608Z,2.37
2022-11-22T05:54:02.748Z,2.43
2022-11-22T05:56:29.815Z,2.40
2022-11-22T05:58:56.783Z,1.90
2022-11-22T06:01:24.731Z,2.00
2022-11-22T06:03:52.377Z,2.10
2022-11-22T06:06:19.889Z,2.20
2022-11-22T06:08:48.632Z,2.10
2022-11-22T06:11:25.763Z,2.10
2022-11-22T06:13:59.572Z,1.97
2022-11-22T06:16:27.474Z,2.20
2022-11-22T06:18:54.739Z,2.47
2022-11-22T06:21:24.706Z,2.30
2022-11-22T06:23:53.437Z,2.50
2022-11-22T06:26:21.570Z,2.40
2022-11-22T06:28:49.801Z,2.37
2022-11-22T06:31:20.968Z,2.23
2022-11-22T06:33:48.547Z,2.43
2022-11-22T06:36:19.979Z,2.13
2022-11-22T06:38:47.637Z,2.83
2022-11-22T06:41:19.269Z,2.27
2022-11-22T06:43:49.358Z,2.80
2022-11-22T06:46:22.962Z,2.37
2022-11-22T06:48:50.406Z,2.50
2022-11-22T06:51:27.609Z,2.37
2022-11-22T06:53:56.001Z,2.17
2022-11-22T06:56:30.890Z,2.20
2022-11-22T06:59:02.012Z,2.43
2022-11-22T07:01:29.943Z,2.03
2022-11-22T07:03:59.148Z,1.83
2022-11-22T07:06:33.527Z,2.37
2022-11-22T07:09:02.480Z,3.27
2022-11-22T07:11:32.159Z,2.20
2022-11-22T07:14:06.976Z,2.30
2022-11-22T07:16:37.414Z,2.10
2022-11-22T07:19:05.701Z,2.47
2022-11-22T07:21:32.771Z,2.37
2022-11-22T07:23:59.784Z,2.30
2022-11-22T07:26:27.851Z,2.10
2022-11-22T07:28:54.944Z,2.40
2022-11-22T07:31:21.935Z,2.67
2022-11-22T07:33:49.232Z,2.20
2022-11-22T07:36:20.155Z,2.17
2022-11-22T07:38:50.347Z,2.80
2022-11-22T07:41:19.407Z,2.67
2022-11-22T07:43:47.225Z,2.20
2022-11-22T07:46:31.262Z,2.20
2022-11-22T07:49:00.057Z,2.10
2022-11-22T07:51:27.536Z,2.30
2022-11-22T07:53:56.452Z,2.10
2022-11-22T07:56:24.250Z,2.20
2022-11-22T07:58:51.226Z,2.10
2022-11-22T08:01:19.941Z,1.97
2022-11-22T08:03:46.966Z,2.17
2022-11-22T08:06:15.025Z,1.70
2022-11-22T08:08:42.448Z,1.93
2022-11-22T08:11:10.163Z,1.97
2022-11-22T08:13:40.473Z,2.17
2022-11-22T08:16:11.807Z,2.10
2022-11-22T08:18:39.600Z,1.70
2022-11-22T08:21:12.533Z,1.90
2022-11-22T08:23:40.540Z,1.90
2022-11-22T08:26:12.669Z,2.20
2022-11-22T08:28:40.978Z,2.10
2022-11-22T08:31:12.827Z,2.30
2022-11-22T08:33:40.839Z,2.40
2022-11-22T08:36:08.448Z,2.70
2022-11-22T08:38:36.154Z,2.30
2022-11-22T08:41:04.191Z,2.23
2022-11-22T08:43:31.982Z,2.37
2022-11-22T08:46:00.106Z,2.30
2022-11-22T08:48:28.685Z,2.50
2022-11-22T08:50:58.786Z,2.90
2022-11-22T08:53:26.674Z,2.70
2022-11-22T08:55:54.818Z,2.90
2022-11-22T08:58:22.607Z,3.07
2022-11-22T09:00:49.530Z,2.80
2022-11-22T09:03:16.454Z,2.77
2022-11-22T09:08:34.366Z,2.50
2022-11-22T09:11:07.030Z,2.50
2022-11-22T09:13:34.064Z,2.80
2022-11-22T09:16:07.495Z,3.10
2022-11-22T09:18:35.437Z,2.20
2022-11-22T09:21:11.206Z,2.50
2022-11-22T09:23:38.377Z,3.13
2022-11-22T09:26:08.983Z,3.13
2022-11-22T09:28:36.485Z,2.07
2022-11-22T09:31:13.706Z,2.30
2022-11-22T09:33:42.242Z,2.70
2022-11-22T09:36:18.871Z,2.20
2022-11-22T09:38:46.243Z,2.30
2022-11-22T09:41:55.688Z,2.17
2022-11-22T09:44:50.366Z,2.30
2022-11-22T09:47:35.733Z,2.20
2022-11-22T09:50:26.519Z,2.33
2022-11-22T09:53:17.109Z,1.97
2022-11-22T09:56:09.847Z,1.77
2022-11-22T09:58:53.352Z,1.60
2022-11-22T10:01:41.068Z,1.73
2022-11-22T10:04:21.518Z,1.90
2022-11-22T10:06:55.937Z,1.30
2022-11-22T10:09:46.887Z,1.20
2022-11-22T10:12:36.154Z,1.50
2022-11-22T10:15:11.524Z,1.50
2022-11-22T10:18:09.485Z,1.87
2022-11-22T10:20:47.247Z,1.50
2022-11-22T10:23:20.626Z,1.40
2022-11-22T10:26:21.865Z,1.57
2022-11-22T10:29:05.394Z,1.50
2022-11-22T10:31:44.282Z,1.50
2022-11-22T10:34:38.221Z,1.27
2022-11-22T10:37:42.324Z,1.30
2022-11-22T10:40:21.460Z,1.00
2022-11-22T10:43:26.526Z,1.00
2022-11-22T10:46:08.425Z,1.00
2022-11-22T10:48:48.612Z,1.30
2022-11-22T10:51:18.602Z,1.13
2022-11-22T10:54:04.141Z,1.20
2022-11-22T10:56:55.064Z,1.20
2022-11-22T10:59:36.750Z,1.20
2022-11-22T11:02:36.094Z,1.30
2022-11-22T11:05:09.052Z,1.00
2022-11-22T11:07:46.250Z,3.43
2022-11-22T11:10:32.591Z,1.00
2022-11-22T11:13:26.374Z,1.30
2022-11-22T11:16:00.250Z,1.33
2022-11-22T11:18:41.802Z,1.40
2022-11-22T11:21:14.676Z,1.10
2022-11-22T11:23:42.824Z,1.07
2022-11-22T11:26:24.152Z,1.10
2022-11-22T11:28:51.386Z,0.90
2022-11-22T11:31:19.170Z,1.37
2022-11-22T11:33:46.981Z,1.43
2022-11-22T11:36:22.194Z,1.10
2022-11-22T11:38:57.440Z,1.10
2022-11-22T11:41:40.245Z,1.37
2022-11-22T11:44:32.337Z,1.23
2022-11-22T11:47:02.520Z,1.33
2022-11-22T11:49:33.105Z,1.30
2022-11-22T11:52:04.202Z,2.00
2022-11-22T11:54:40.759Z,1.50
2022-11-22T11:57:23.945Z,1.13
2022-11-22T11:59:52.613Z,1.40
2022-11-22T12:02:39.997Z,1.30
2022-11-22T12:05:14.198Z,1.30
2022-11-22T12:07:44.877Z,2.10
2022-11-22T12:10:40.639Z,2.07
2022-11-22T12:14:12.445Z,1.90
2022-11-22T12:16:40.315Z,2.00
2022-11-22T12:20:02.308Z,2.77
2022-11-22T12:23:01.265Z,2.40
2022-11-22T12:25:39.247Z,2.73
2022-11-22T12:28:20.769Z,2.40
2022-11-22T12:31:16.344Z,2.10
2022-11-22T12:33:47.919Z,2.50
2022-11-22T12:36:54.249Z,2.80
2022-11-22T12:39:27.219Z,2.87
2022-11-22T12:42:01.500Z,2.60
2022-11-22T12:44:35.016Z,2.60
2022-11-22T12:47:13.298Z,2.30
2022-11-22T12:50:07.145Z,2.23
2022-11-22T12:52:47.799Z,3.50
2022-11-22T12:55:31.586Z,2.10
2022-11-22T12:58:32.760Z,2.20
2022-11-22T13:01:24.579Z,2.03
2022-11-22T13:04:01.124Z,2.13
2022-11-22T13:06:50.167Z,2.03
2022-11-22T13:09:36.493Z,2.10
2022-11-22T13:12:09.903Z,2.20
2022-11-22T13:14:47.656Z,1.90
2022-11-22T13:17:17.381Z,2.13
2022-11-22T13:19:50.897Z,1.90
2022-11-22T13:23:01.582Z,1.83
2022-11-22T13:25:48.698Z,1.93
2022-11-22T13:28:30.219Z,1.70
2022-11-22T13:31:04.406Z,1.40
2022-11-22T13:33:32.162Z,1.80
2022-11-22T13:36:29.919Z,1.60
2022-11-22T13:39:09.503Z,1.33
2022-11-22T13:41:59.866Z,1.30
2022-11-22T13:44:33.026Z,1.20
2022-11-22T13:47:04.611Z,1.23
2022-11-22T13:49:48.826Z,0.80
2022-11-22T13:52:16.197Z,0.90
2022-11-22T13:54:56.771Z,1.00
2022-11-22T13:57:40.671Z,1.23
2022-11-22T14:00:16.045Z,0.90
2022-11-22T14:03:21.475Z,1.17
2022-11-22T14:05:51.393Z,0.90
2022-11-22T14:08:36.428Z,1.13
2022-11-22T14:11:37.663Z,1.20
2022-11-22T14:14:46.488Z,0.97
2022-11-22T14:17:41.574Z,1.00
2022-11-22T14:20:27.597Z,1.00
2022-11-22T14:23:30.716Z,1.20
2022-11-22T14:26:10.558Z,1.17
2022-11-22T14:29:05.311Z,1.20
2022-11-22T14:31:35.107Z,1.17
2022-11-22T14:34:27.393Z,0.90
2022-11-22T14:37:13.212Z,0.97
2022-11-22T14:39:50.159Z,0.80
2022-11-22T14:42:35.724Z,1.10
2022-11-22T14:45:43.797Z,0.93
2022-11-22T14:48:30.468Z,1.20
2022-11-22T14:51:20.170Z,1.00
2022-11-22T14:54:00.301Z,0.90
2022-11-22T14:56:34.442Z,1.07
2022-11-22T14:59:01.275Z,1.00
2022-11-22T15:01:48.085Z,1.30
2022-11-22T15:09:10.684Z,1.10
2022-11-22T15:09:15.085Z,1.20
2022-11-22T15:11:21.489Z,1.20
2022-11-22T15:14:13.546Z,1.57
2022-11-22T15:57:30.196Z,2.63
2022-11-22T15:59:57.667Z,2.67
2022-11-22T16:02:32.524Z,2.43
2022-11-22T16:06:07.808Z,3.00
2022-11-22T16:07:56.934Z,2.47
2022-11-22T16:10:42.527Z,3.07
2022-11-22T16:13:21.613Z,3.10
2022-11-22T16:16:11.695Z,3.00
2022-11-22T16:18:42.888Z,2.73
2022-11-22T16:21:15.401Z,2.83
2022-11-22T16:23:46.920Z,2.93
2022-11-22T16:27:06.087Z,2.07
2022-11-22T16:29:36.971Z,2.73
2022-11-22T16:32:15.071Z,2.70
2022-11-22T16:34:43.447Z,2.93
2022-11-22T16:37:37.693Z,2.93
2022-11-22T16:40:06.634Z,3.10
2022-11-22T16:42:35.455Z,2.93
2022-11-22T16:45:04.252Z,2.37
2022-11-22T16:47:31.597Z,2.53
2022-11-22T16:49:58.547Z,2.20
2022-11-22T16:52:25.582Z,2.70
2022-11-22T16:54:52.487Z,2.60
2022-11-22T16:57:19.398Z,2.73
2022-11-22T16:59:46.382Z,2.93
2022-11-22T17:02:15.806Z,2.77
2022-11-22T17:04:45.832Z,2.70
2022-11-22T17:07:14.739Z,2.50
2022-11-22T17:09:42.167Z,3.67
2022-11-22T17:12:32.191Z,2.50
2022-11-22T17:15:00.799Z,2.97
2022-11-22T17:17:27.743Z,3.30
2022-11-22T17:19:54.689Z,2.40
2022-11-22T17:22:21.732Z,2.07
2022-11-22T17:24:48.902Z,2.23
2022-11-22T17:27:15.922Z,2.37
2022-11-22T17:29:50.421Z,2.50
2022-11-22T17:32:18.265Z,2.50
2022-11-22T17:34:45.290Z,2.57
2022-11-22T17:37:13.058Z,2.87
2022-11-22T17:39:42.804Z,2.83
2022-11-22T17:42:09.751Z,2.70
2022-11-22T17:44:36.760Z,2.70
2022-11-22T17:47:04.038Z,2.63
2022-11-22T17:49:31.374Z,2.47
2022-11-22T17:51:58.465Z,2.47
2022-11-22T17:54:25.376Z,2.07
2022-11-22T17:56:52.350Z,2.40
2022-11-22T17:59:19.315Z,2.80
2022-11-22T18:01:46.299Z,2.67
2022-11-22T18:04:14.707Z,2.20
2022-11-22T18:06:41.676Z,2.83
2022-11-22T18:09:08.833Z,2.27
2022-11-22T18:11:35.765Z,2.37
2022-11-22T18:14:02.654Z,2.90
2022-11-22T18:16:30.121Z,2.63
2022-11-22T18:18:58.541Z,2.00
2022-11-22T18:21:29.047Z,3.27
2022-11-22T18:23:58.349Z,3.23
2022-11-22T18:26:41.620Z,2.27
2022-11-22T18:31:57.348Z,2.50
2022-11-22T18:34:25.065Z,2.33
2022-11-22T18:36:55.686Z,2.40
2022-11-22T18:39:23.319Z,2.70
2022-11-22T18:41:50.316Z,2.10
2022-11-22T18:44:17.342Z,3.50
2022-11-22T18:46:44.362Z,3.07
2022-11-22T18:49:11.509Z,2.63
2022-11-22T18:51:38.587Z,2.30
2022-11-22T18:54:05.748Z,2.70
2022-11-22T18:56:37.802Z,2.60
2022-11-22T18:59:06.324Z,2.73
2022-11-22T19:01:37.290Z,2.93
2022-11-22T19:04:04.907Z,2.40
2022-11-22T19:06:32.132Z,2.07
2022-11-22T19:08:59.287Z,2.40
2022-11-22T19:11:29.293Z,2.30
2022-11-22T19:13:57.086Z,2.80
2022-11-22T19:16:25.828Z,2.50
2022-11-22T19:18:52.879Z,2.80
2022-11-22T19:21:22.900Z,2.47
2022-11-22T19:23:50.484Z,2.83
2022-11-22T19:26:23.872Z,2.53
2022-11-22T19:28:55.638Z,2.60
2022-11-22T19:31:31.450Z,2.63
2022-11-22T19:33:59.768Z,2.47
2022-11-22T19:36:33.253Z,2.77
2022-11-22T19:39:05.680Z,2.57
2022-11-22T19:41:33.292Z,2.57
2022-11-22T19:44:00.596Z,2.50
2022-11-22T19:46:28.193Z,2.50
2022-11-22T19:48:58.059Z,3.10
2022-11-22T19:51:27.532Z,3.33
2022-11-22T19:53:59.753Z,2.83
2022-11-22T19:56:30.629Z,2.77
2022-11-22T19:58:59.960Z,3.10
2022-11-22T20:01:30.469Z,2.73
2022-11-22T20:04:00.956Z,3.67
2022-11-22T20:06:29.116Z,2.50
2022-11-22T20:09:10.388Z,3.20
2022-11-22T20:11:39.714Z,3.50
2022-11-22T20:14:07.618Z,3.10
2022-11-22T20:16:41.717Z,3.10
2022-11-22T20:19:10.629Z,2.93
2022-11-22T20:21:39.099Z,2.73
2022-11-22T20:24:07.044Z,3.10
2022-11-22T20:26:34.801Z,3.80
2022-11-22T20:29:07.607Z,2.77
2022-11-22T20:31:37.892Z,2.97
2022-11-22T20:34:05.567Z,2.97
2022-11-22T20:36:34.743Z,3.17
2022-11-22T20:39:05.522Z,3.30
2022-11-22T20:41:36.446Z,2.73
2022-11-22T20:44:03.792Z,3.03
2022-11-22T20:46:30.772Z,3.00
2022-11-22T20:48:58.254Z,4.43
2022-11-22T20:51:28.705Z,2.60
2022-11-22T20:53:57.086Z,3.07
2022-11-22T20:56:24.866Z,4.27
2022-11-22T20:58:52.506Z,3.13
2022-11-22T21:01:26.189Z,3.00
2022-11-22T21:03:54.469Z,3.17
2022-11-22T21:06:24.266Z,3.33
2022-11-22T21:08:51.697Z,3.93
2022-11-22T21:11:22.712Z,3.10
2022-11-22T21:13:51.242Z,3.17
2022-11-22T21:16:28.105Z,2.90
2022-11-22T21:18:58.576Z,3.17
2022-11-22T21:21:26.403Z,3.37
2022-11-22T21:23:56.285Z,2.67
2022-11-22T21:26:24.346Z,2.83
2022-11-22T21:28:52.665Z,2.70
2022-11-22T21:31:21.051Z,3.37
2022-11-22T21:33:48.832Z,2.57
2022-11-22T21:36:16.100Z,3.00
2022-11-22T21:38:43.172Z,2.80
2022-11-22T21:44:05.637Z,2.80
2022-11-22T21:46:32.562Z,2.90
2022-11-22T21:48:59.595Z,3.23
2022-11-22T21:51:26.773Z,2.30
2022-11-22T21:54:01.741Z,3.00
2022-11-22T21:56:29.252Z,2.20
2022-11-22T21:58:56.432Z,3.03
2022-11-22T22:01:23.980Z,2.40
2022-11-22T22:03:51.183Z,3.03
2022-11-22T22:06:18.668Z,2.83
2022-11-22T22:08:45.572Z,2.77
2022-11-22T22:11:12.820Z,2.70
2022-11-22T22:13:39.803Z,2.63
2022-11-22T22:16:07.331Z,2.67
2022-11-22T22:18:37.501Z,2.70
2022-11-22T22:21:10.351Z,3.27
2022-11-22T22:23:39.342Z,2.43
2022-11-22T22:26:15.819Z,2.50
2022-11-22T22:28:45.096Z,2.20
2022-11-22T22:31:22.311Z,2.57
2022-11-22T22:33:56.577Z,2.37
2022-11-22T22:36:25.940Z,2.10
2022-11-22T22:38:53.934Z,2.77
2022-11-22T22:41:20.885Z,2.80
2022-11-22T22:43:49.187Z,2.67
2022-11-22T22:46:22.743Z,2.63
2022-11-22T22:48:50.819Z,2.60
2022-11-22T22:51:21.078Z,1.90
2022-11-22T22:53:48.880Z,2.57
2022-11-22T22:56:18.987Z,2.47
2022-11-22T22:58:46.307Z,2.50
2022-11-22T23:01:19.918Z,2.00
2022-11-22T23:03:57.334Z,2.20
2022-11-22T23:06:30.032Z,1.97
2022-11-22T23:08:57.922Z,1.97
2022-11-22T23:11:48.996Z,2.10
2022-11-22T23:14:23.539Z,2.10
2022-11-22T23:16:55.989Z,2.30
2022-11-22T23:19:24.710Z,1.93
2022-11-22T23:21:51.804Z,2.73
2022-11-22T23:24:18.906Z,2.50
2022-11-22T23:26:45.933Z,2.30
2022-11-22T23:29:13.109Z,2.40
2022-11-22T23:31:40.116Z,2.63
2022-11-22T23:34:07.139Z,2.40
2022-11-22T23:36:40.226Z,2.77
2022-11-22T23:39:07.960Z,2.47
2022-11-22T23:41:35.028Z,2.90
2022-11-22T23:44:02.029Z,2.63
2022-11-22T23:46:29.091Z,2.17
2022-11-22T23:48:59.604Z,2.93
2022-11-22T23:51:28.904Z,2.90
2022-11-22T23:54:02.096Z,2.77
2022-11-22T23:56:31.017Z,2.80
2022-11-22T23:59:01.867Z,2.70
